Norwalk, Connecticut
Current Conditions -  °F | °C
As of 4:52 AM on Saturday 20 Dec 2014 (Local Time) from KBDR Reporting Station
Overcast Overcast  
Wind Chill: 31°   Ceiling: 2600
Heat Index: 31°   Visibility: 10mi
Dew Point: 21°   Wind: 3mph
Humidity: 67%   Direction: 340°NNW
Pressure: 30.23"   Gusts: NA
Location:  41.11°N, 73.41°W
Report Text: KBDR 200952Z AUTO 34003KT 10SM OVC026 M01/M06 A3023 RMK AO2 SLP237 T10061061
Loading
Personal Weather Stations






























Interactive Weather Map New forecast layout! Learn more

10-Day Weather Forecast

Advertisements
Track Severe Weather on mobile